createdAt,value
2022-12-03T00:00:12.529Z,23.80
2022-12-03T00:01:14.780Z,24.33
2022-12-03T00:02:16.422Z,24.33
2022-12-03T00:03:18.210Z,23.20
2022-12-03T00:04:19.892Z,23.88
2022-12-03T00:05:21.515Z,22.67
2022-12-03T00:06:24.154Z,22.70
2022-12-03T00:07:25.813Z,20.85
2022-12-03T00:08:27.434Z,20.70
2022-12-03T00:09:29.042Z,21.83
2022-12-03T00:10:30.807Z,21.08
2022-12-03T00:11:32.363Z,21.85
2022-12-03T00:12:34.017Z,22.33
2022-12-03T00:13:35.554Z,22.92
2022-12-03T00:14:42.916Z,25.40
2022-12-03T00:15:46.233Z,24.23
2022-12-03T00:16:47.830Z,22.25
2022-12-03T00:17:49.375Z,22.33
2022-12-03T00:18:50.922Z,22.55
2022-12-03T00:19:52.418Z,22.63
2022-12-03T00:20:54.017Z,23.67
2022-12-03T00:21:55.582Z,21.95
2022-12-03T00:22:57.212Z,23.50
2022-12-03T00:23:58.911Z,23.38
2022-12-03T00:25:00.595Z,24.08
2022-12-03T00:26:02.148Z,23.17
2022-12-03T00:27:03.759Z,23.95
2022-12-03T00:28:05.334Z,22.23
2022-12-03T00:29:06.911Z,22.15
2022-12-03T00:30:09.061Z,21.90
2022-12-03T00:31:10.644Z,21.10
2022-12-03T00:32:12.284Z,22.55
2022-12-03T00:33:13.865Z,21.70
2022-12-03T00:34:15.431Z,21.98
2022-12-03T00:35:17.075Z,21.17
2022-12-03T00:36:18.677Z,22.80
2022-12-03T00:37:20.290Z,22.02
2022-12-03T00:38:21.822Z,22.90
2022-12-03T00:39:23.408Z,22.45
2022-12-03T00:40:24.988Z,23.70
2022-12-03T00:41:26.557Z,21.67
2022-12-03T00:42:28.190Z,22.20
2022-12-03T00:43:29.724Z,21.85
2022-12-03T00:44:31.266Z,22.23
2022-12-03T00:45:32.870Z,20.70
2022-12-03T00:46:34.532Z,20.45
2022-12-03T00:47:36.340Z,22.00
2022-12-03T00:48:37.923Z,21.27
2022-12-03T00:49:39.466Z,21.38
2022-12-03T00:50:41.071Z,21.25
2022-12-03T00:51:42.637Z,20.30
2022-12-03T00:52:44.279Z,22.05
2022-12-03T00:53:45.832Z,22.33
2022-12-03T00:54:47.387Z,22.05
2022-12-03T00:55:50.717Z,23.07
2022-12-03T00:56:52.274Z,22.08
2022-12-03T00:57:53.893Z,20.90
2022-12-03T00:58:55.441Z,22.77
2022-12-03T00:59:57.047Z,21.45
2022-12-03T01:00:58.693Z,22.67
2022-12-03T01:02:00.305Z,21.77
2022-12-03T01:03:02.124Z,20.58
2022-12-03T01:04:03.797Z,21.63
2022-12-03T01:05:05.568Z,21.10
2022-12-03T01:06:07.158Z,22.00
2022-12-03T01:07:08.694Z,20.27
2022-12-03T01:08:10.342Z,21.13
2022-12-03T01:09:11.985Z,21.48
2022-12-03T01:10:13.714Z,21.50
2022-12-03T01:11:33.823Z,21.63
2022-12-03T01:12:35.401Z,21.48
2022-12-03T01:13:36.944Z,19.98
2022-12-03T01:14:38.548Z,21.25
2022-12-03T01:15:40.144Z,20.05
2022-12-03T01:16:41.972Z,21.07
2022-12-03T01:17:43.503Z,21.13
2022-12-03T01:18:46.286Z,22.48
2022-12-03T01:19:48.545Z,22.38
2022-12-03T01:20:50.288Z,20.52
2022-12-03T01:21:52.184Z,21.00
2022-12-03T01:22:53.930Z,21.48
2022-12-03T01:23:55.568Z,20.77
2022-12-03T01:24:57.116Z,21.52
2022-12-03T01:25:58.666Z,21.08
2022-12-03T01:27:01.010Z,22.17
2022-12-03T01:28:02.563Z,22.42
2022-12-03T01:29:04.513Z,20.48
2022-12-03T01:30:06.782Z,21.27
2022-12-03T01:31:27.582Z,21.27
2022-12-03T01:32:29.241Z,21.85
2022-12-03T01:33:30.787Z,21.30
2022-12-03T01:34:32.409Z,21.05
2022-12-03T01:35:34.016Z,21.58
2022-12-03T01:36:35.566Z,20.83
2022-12-03T01:37:37.174Z,21.38
2022-12-03T01:38:38.743Z,21.85
2022-12-03T01:39:40.458Z,20.95
2022-12-03T01:40:42.067Z,21.63
2022-12-03T01:41:43.626Z,20.90
2022-12-03T01:42:45.266Z,20.55
2022-12-03T01:43:46.844Z,21.33
2022-12-03T01:44:48.397Z,21.42
2022-12-03T01:45:50.021Z,21.95
2022-12-03T01:46:52.382Z,20.47
2022-12-03T01:47:53.994Z,21.70
2022-12-03T01:48:55.565Z,19.92
2022-12-03T01:50:03.938Z,21.90
2022-12-03T01:51:05.884Z,20.23
2022-12-03T01:52:11.045Z,22.48
2022-12-03T01:53:15.251Z,21.17
2022-12-03T01:54:21.554Z,23.02
2022-12-03T01:55:23.145Z,21.60
2022-12-03T01:56:24.742Z,21.70
2022-12-03T01:57:42.764Z,21.20
2022-12-03T01:58:44.536Z,22.33
2022-12-03T01:59:46.200Z,23.08
2022-12-03T02:00:47.797Z,23.60
2022-12-03T02:01:49.408Z,22.58
2022-12-03T02:02:53.348Z,23.50
2022-12-03T02:03:55.026Z,22.42
2022-12-03T02:04:56.832Z,23.05
2022-12-03T02:05:58.388Z,21.95
2022-12-03T02:07:18.719Z,23.33
2022-12-03T02:08:34.618Z,22.00
2022-12-03T02:09:36.171Z,23.52
2022-12-03T02:10:37.665Z,21.92
2022-12-03T02:11:41.225Z,22.63
2022-12-03T02:12:47.310Z,25.27
2022-12-03T02:13:49.999Z,22.75
2022-12-03T02:14:51.970Z,22.33
2022-12-03T02:15:53.834Z,21.02
2022-12-03T02:16:55.514Z,20.52
2022-12-03T02:17:57.058Z,23.58
2022-12-03T02:18:58.664Z,21.87
2022-12-03T02:20:01.714Z,22.02
2022-12-03T02:21:32.695Z,22.20
2022-12-03T02:22:55.976Z,22.17
2022-12-03T02:23:57.466Z,22.42
2022-12-03T02:25:32.064Z,21.63
2022-12-03T02:26:33.602Z,19.58
2022-12-03T02:27:35.134Z,21.65
2022-12-03T02:28:38.191Z,23.10
2022-12-03T02:29:39.731Z,23.65
2022-12-03T02:30:41.259Z,23.17
2022-12-03T02:31:43.486Z,21.40
2022-12-03T02:32:45.197Z,23.38
2022-12-03T02:33:46.739Z,24.10
2022-12-03T02:34:48.392Z,24.20
2022-12-03T02:35:49.994Z,26.10
2022-12-03T02:36:51.551Z,24.45
2022-12-03T02:37:55.183Z,23.05
2022-12-03T02:38:56.795Z,26.08
2022-12-03T02:39:59.957Z,22.93
2022-12-03T02:41:04.651Z,23.30
2022-12-03T02:42:24.575Z,25.35
2022-12-03T02:43:26.212Z,24.98
2022-12-03T02:44:27.759Z,23.30
2022-12-03T02:45:31.142Z,25.10
2022-12-03T02:46:33.224Z,23.67
2022-12-03T02:47:42.824Z,22.85
2022-12-03T02:48:44.478Z,22.45
2022-12-03T02:49:46.021Z,23.83
2022-12-03T02:50:52.256Z,23.45
2022-12-03T02:51:53.819Z,23.58
2022-12-03T02:52:56.158Z,23.77
2022-12-03T02:53:57.792Z,21.67
2022-12-03T02:54:59.373Z,23.60
2022-12-03T02:56:01.802Z,23.30
2022-12-03T02:57:03.451Z,22.40
2022-12-03T02:58:05.225Z,22.17
2022-12-03T02:59:06.844Z,22.80
2022-12-03T03:00:09.191Z,20.77
2022-12-03T03:01:10.779Z,22.50
2022-12-03T03:02:13.555Z,23.30
2022-12-03T03:03:15.193Z,22.35
2022-12-03T03:04:16.750Z,23.70
2022-12-03T03:05:20.396Z,21.92
2022-12-03T03:06:21.946Z,23.30
2022-12-03T03:07:23.488Z,21.08
2022-12-03T03:08:25.108Z,21.50
2022-12-03T03:09:26.651Z,22.17
2022-12-03T03:10:28.218Z,21.60
2022-12-03T03:11:29.805Z,21.95
2022-12-03T03:12:34.837Z,22.50
2022-12-03T03:13:40.466Z,20.92
2022-12-03T03:14:42.006Z,23.17
2022-12-03T03:15:43.622Z,23.60
2022-12-03T03:16:45.284Z,23.58
2022-12-03T03:17:46.949Z,22.52
2022-12-03T03:18:48.492Z,23.03
2022-12-03T03:19:50.098Z,24.10
2022-12-03T03:20:51.669Z,21.88
2022-12-03T03:21:53.667Z,22.63
2022-12-03T03:22:55.214Z,22.00
2022-12-03T03:23:56.762Z,21.70
2022-12-03T03:24:58.377Z,23.60
2022-12-03T03:26:03.630Z,22.92
2022-12-03T03:27:05.179Z,22.25
2022-12-03T03:28:06.747Z,23.23
2022-12-03T03:29:08.308Z,23.43
2022-12-03T03:30:10.440Z,23.52
2022-12-03T03:31:12.932Z,21.65
2022-12-03T03:32:14.542Z,23.50
2022-12-03T03:33:16.187Z,24.00
2022-12-03T03:34:17.747Z,23.33
2022-12-03T03:35:19.422Z,23.00
2022-12-03T03:36:20.972Z,22.52
2022-12-03T03:37:22.517Z,23.35
2022-12-03T03:38:24.139Z,22.50
2022-12-03T03:39:25.690Z,22.45
2022-12-03T03:40:27.481Z,23.33
2022-12-03T03:41:29.086Z,22.48
2022-12-03T03:42:30.669Z,23.05
2022-12-03T03:43:33.393Z,23.17
2022-12-03T03:44:35.063Z,23.35
2022-12-03T03:45:36.744Z,22.70
2022-12-03T03:46:38.722Z,21.92
2022-12-03T03:47:40.366Z,21.38
2022-12-03T03:48:42.154Z,20.87
2022-12-03T03:49:44.154Z,21.63
2022-12-03T03:50:45.717Z,24.80
2022-12-03T03:51:47.330Z,22.02
2022-12-03T03:52:48.885Z,23.65
2022-12-03T03:53:50.444Z,22.65
2022-12-03T03:54:52.490Z,23.45
2022-12-03T03:55:54.380Z,23.55
2022-12-03T03:56:55.894Z,23.35
2022-12-03T03:57:57.453Z,23.48
2022-12-03T03:58:58.985Z,21.57
2022-12-03T04:00:00.539Z,22.60
2022-12-03T04:01:02.217Z,22.98
2022-12-03T04:02:03.809Z,23.52
2022-12-03T04:03:05.453Z,22.00
2022-12-03T04:04:16.944Z,23.35
2022-12-03T04:05:20.072Z,22.25
2022-12-03T04:06:21.639Z,22.30
2022-12-03T04:07:23.197Z,23.27
2022-12-03T04:08:24.773Z,23.05
2022-12-03T04:09:26.331Z,23.10
2022-12-03T04:10:46.484Z,22.83
2022-12-03T04:12:06.353Z,23.08
2022-12-03T04:13:07.894Z,22.42
2022-12-03T04:14:09.456Z,22.70
2022-12-03T04:15:11.019Z,22.35
2022-12-03T04:16:12.695Z,21.65
2022-12-03T04:17:14.297Z,22.48
2022-12-03T04:18:34.357Z,22.13
2022-12-03T04:19:35.918Z,23.83
2022-12-03T04:20:38.081Z,23.45
2022-12-03T04:21:59.055Z,22.75
2022-12-03T04:23:00.598Z,21.83
2022-12-03T04:24:02.286Z,24.45
2022-12-03T04:25:23.068Z,22.45
2022-12-03T04:26:43.178Z,22.23
2022-12-03T04:28:03.758Z,23.25
2022-12-03T04:29:05.287Z,22.63
2022-12-03T04:30:07.352Z,21.65
2022-12-03T04:31:27.522Z,22.50
2022-12-03T04:32:47.783Z,22.55
2022-12-03T04:34:07.803Z,22.15
2022-12-03T04:35:28.734Z,23.30
2022-12-03T04:36:30.336Z,22.52
2022-12-03T04:37:31.856Z,22.10
2022-12-03T04:38:33.429Z,25.08
2022-12-03T04:39:35.052Z,23.52
2022-12-03T04:40:55.634Z,24.55
2022-12-03T04:41:57.176Z,22.15
2022-12-03T04:42:58.730Z,22.83
2022-12-03T04:44:18.997Z,23.90
2022-12-03T04:45:20.619Z,21.58
2022-12-03T04:46:22.348Z,22.60
2022-12-03T04:47:40.112Z,23.33
2022-12-03T04:48:41.819Z,21.80
2022-12-03T04:49:47.448Z,23.35
2022-12-03T04:50:49.016Z,23.58
2022-12-03T04:51:50.670Z,23.27
2022-12-03T04:52:52.222Z,23.75
2022-12-03T04:53:53.794Z,22.93
2022-12-03T04:54:55.525Z,22.13
2022-12-03T04:55:57.377Z,23.60
2022-12-03T04:56:58.986Z,24.25
2022-12-03T04:58:00.537Z,22.08
2022-12-03T04:59:02.124Z,23.45
2022-12-03T05:00:05.223Z,22.88
2022-12-03T05:01:06.860Z,23.63
2022-12-03T05:02:08.699Z,22.85
2022-12-03T05:03:10.317Z,23.05
2022-12-03T05:04:12.875Z,22.73
2022-12-03T05:05:14.489Z,23.40
2022-12-03T05:06:16.096Z,22.73
2022-12-03T05:07:17.728Z,21.90
2022-12-03T05:08:19.311Z,22.95
2022-12-03T05:09:20.916Z,22.90
2022-12-03T05:10:22.448Z,22.33
2022-12-03T05:11:24.016Z,22.80
2022-12-03T05:12:25.623Z,24.35
2022-12-03T05:13:27.230Z,23.17
2022-12-03T05:14:28.791Z,24.83
2022-12-03T05:15:30.333Z,22.80
2022-12-03T05:16:31.975Z,24.20
2022-12-03T05:17:33.591Z,23.08
2022-12-03T05:18:35.206Z,23.40
2022-12-03T05:19:55.166Z,24.02
2022-12-03T05:20:56.718Z,23.05
2022-12-03T05:21:58.344Z,24.95
2022-12-03T05:22:59.925Z,23.38
2022-12-03T05:24:01.782Z,23.97
2022-12-03T05:25:03.793Z,25.17
2022-12-03T05:26:05.343Z,23.60
2022-12-03T05:27:06.953Z,25.95
2022-12-03T05:28:08.708Z,25.30
2022-12-03T05:29:10.322Z,24.38
2022-12-03T05:30:12.129Z,25.45
2022-12-03T05:31:13.814Z,23.67
2022-12-03T05:32:15.443Z,23.88
2022-12-03T05:33:17.040Z,23.77
2022-12-03T05:34:18.602Z,23.15
2022-12-03T05:35:20.324Z,24.15
2022-12-03T05:36:22.005Z,23.73
2022-12-03T05:37:23.565Z,25.40
2022-12-03T05:38:25.118Z,25.92
2022-12-03T05:39:26.735Z,27.15
2022-12-03T05:40:28.540Z,27.40
2022-12-03T05:41:48.487Z,27.85
2022-12-03T05:42:57.238Z,26.63
2022-12-03T05:43:58.919Z,27.57
2022-12-03T05:45:00.476Z,27.52
2022-12-03T05:46:02.724Z,29.20
2022-12-03T05:47:04.286Z,27.60
2022-12-03T05:48:07.466Z,29.58
2022-12-03T05:49:09.009Z,27.35
2022-12-03T05:50:10.767Z,27.42
2022-12-03T05:51:12.416Z,34.20
2022-12-03T05:52:13.959Z,46.13
2022-12-03T05:53:15.980Z,52.20
2022-12-03T05:54:17.536Z,43.87
2022-12-03T05:55:19.435Z,41.53
2022-12-03T05:56:21.041Z,32.35
2022-12-03T05:57:22.572Z,30.00
2022-12-03T05:58:24.125Z,29.85
2022-12-03T05:59:25.742Z,25.80
2022-12-03T06:00:29.118Z,26.77
2022-12-03T06:01:30.718Z,27.30
2022-12-03T06:02:32.451Z,26.08
2022-12-03T06:03:34.227Z,26.33
2022-12-03T06:04:36.414Z,24.17
2022-12-03T06:05:38.013Z,24.88
2022-12-03T06:06:39.756Z,26.23
2022-12-03T06:07:41.527Z,25.38
2022-12-03T06:08:43.177Z,24.10
2022-12-03T06:09:44.728Z,23.80
2022-12-03T06:10:46.534Z,23.58
2022-12-03T06:11:53.240Z,23.52
2022-12-03T06:12:54.916Z,24.88
2022-12-03T06:13:56.482Z,23.93
2022-12-03T06:14:58.025Z,24.20
2022-12-03T06:15:59.685Z,24.48
2022-12-03T06:17:01.782Z,24.27
2022-12-03T06:18:03.429Z,27.38
2022-12-03T06:19:05.077Z,26.90
2022-12-03T06:20:07.358Z,23.98
2022-12-03T06:21:09.008Z,27.00
2022-12-03T06:22:10.559Z,25.27
2022-12-03T06:23:12.108Z,24.38
2022-12-03T06:24:13.783Z,26.80
2022-12-03T06:25:16.009Z,27.92
2022-12-03T06:26:17.620Z,23.48
2022-12-03T06:27:19.179Z,24.70
2022-12-03T06:28:20.800Z,26.17
2022-12-03T06:29:22.344Z,27.05
2022-12-03T06:30:23.889Z,25.20
2022-12-03T06:31:25.518Z,24.88
2022-12-03T06:32:27.084Z,24.35
2022-12-03T06:33:28.681Z,24.95
2022-12-03T06:34:30.242Z,25.63
2022-12-03T06:35:31.826Z,24.42
2022-12-03T06:36:33.438Z,26.27
2022-12-03T06:37:34.982Z,24.88
2022-12-03T06:38:36.579Z,27.75
2022-12-03T06:39:38.149Z,33.83
2022-12-03T06:40:39.776Z,27.23
2022-12-03T06:41:41.316Z,25.58
2022-12-03T06:42:42.985Z,25.45
2022-12-03T06:43:44.572Z,25.88
2022-12-03T06:44:46.127Z,29.07
2022-12-03T06:45:48.185Z,28.05
2022-12-03T06:46:49.873Z,24.80
2022-12-03T06:47:51.464Z,26.80
2022-12-03T06:48:53.026Z,27.10
2022-12-03T06:49:54.593Z,25.67
2022-12-03T06:50:56.232Z,25.75
2022-12-03T06:51:57.806Z,24.05
2022-12-03T06:52:59.375Z,25.05
2022-12-03T06:54:01.009Z,25.00
2022-12-03T06:55:02.583Z,24.50
2022-12-03T06:56:04.340Z,24.60
2022-12-03T06:57:05.881Z,25.50
2022-12-03T06:58:07.500Z,24.13
2022-12-03T06:59:09.047Z,25.50
2022-12-03T07:00:11.270Z,26.10
2022-12-03T07:01:12.885Z,25.27
2022-12-03T07:02:14.494Z,25.10
2022-12-03T07:03:16.154Z,25.20
2022-12-03T07:04:17.736Z,24.97
2022-12-03T07:05:20.004Z,25.55
2022-12-03T07:06:21.552Z,23.17
2022-12-03T07:07:23.172Z,23.98
2022-12-03T07:08:24.724Z,24.60
2022-12-03T07:09:26.427Z,24.40
2022-12-03T07:10:28.167Z,25.83
2022-12-03T07:11:32.399Z,24.58
2022-12-03T07:12:34.053Z,26.83
2022-12-03T07:13:35.602Z,24.17
2022-12-03T07:14:37.152Z,25.13
2022-12-03T07:15:38.726Z,24.52
2022-12-03T07:16:40.444Z,22.90
2022-12-03T07:17:42.174Z,23.15
2022-12-03T07:18:43.740Z,22.92
2022-12-03T07:19:45.292Z,26.05
2022-12-03T07:20:46.831Z,25.27
2022-12-03T07:21:48.361Z,24.52
2022-12-03T07:22:50.034Z,23.65
2022-12-03T07:23:51.581Z,23.43
2022-12-03T07:24:53.439Z,23.45
2022-12-03T07:25:55.142Z,25.20
2022-12-03T07:26:56.742Z,22.17
2022-12-03T07:27:58.514Z,22.13
2022-12-03T07:29:00.154Z,23.33
2022-12-03T07:30:01.784Z,24.80
2022-12-03T07:31:03.486Z,22.35
2022-12-03T07:32:05.414Z,28.63
2022-12-03T07:33:07.040Z,30.08
2022-12-03T07:34:08.621Z,32.73
2022-12-03T07:35:10.283Z,26.05
2022-12-03T07:36:11.906Z,27.20
2022-12-03T07:37:13.515Z,28.95
2022-12-03T07:38:15.063Z,27.20
2022-12-03T07:39:16.653Z,28.25
2022-12-03T07:40:18.276Z,26.52
2022-12-03T07:41:19.892Z,27.92
2022-12-03T07:42:21.458Z,28.52
2022-12-03T07:43:23.000Z,27.08
2022-12-03T07:44:24.560Z,27.40
2022-12-03T07:45:26.181Z,26.88
2022-12-03T07:46:28.033Z,25.85
2022-12-03T07:47:29.735Z,25.80
2022-12-03T07:48:31.322Z,24.70
2022-12-03T07:49:32.988Z,26.65
2022-12-03T07:50:34.571Z,24.05
2022-12-03T07:51:36.131Z,25.35
2022-12-03T07:52:37.745Z,25.67
2022-12-03T07:53:39.307Z,25.15
2022-12-03T07:54:40.846Z,24.13
2022-12-03T07:55:42.452Z,25.35
2022-12-03T07:56:44.026Z,22.77
2022-12-03T07:57:45.594Z,24.02
2022-12-03T07:58:47.161Z,23.52
2022-12-03T07:59:48.711Z,23.27
2022-12-03T08:00:50.367Z,24.38
2022-12-03T08:01:52.016Z,24.02
2022-12-03T08:02:53.607Z,23.00
2022-12-03T08:03:55.317Z,24.25
2022-12-03T08:04:56.976Z,21.80
2022-12-03T08:05:58.645Z,24.30
2022-12-03T08:07:00.204Z,25.02
2022-12-03T08:08:01.996Z,25.65
2022-12-03T08:09:03.704Z,23.33
2022-12-03T08:10:05.876Z,25.08
2022-12-03T08:11:11.355Z,23.38
2022-12-03T08:12:24.569Z,23.25
2022-12-03T08:13:26.993Z,23.95
2022-12-03T08:14:29.035Z,24.55
2022-12-03T08:15:35.382Z,25.70
2022-12-03T08:16:41.676Z,25.90
2022-12-03T08:17:43.777Z,25.23
2022-12-03T08:18:45.750Z,24.90
2022-12-03T08:19:47.590Z,26.52
2022-12-03T08:20:50.646Z,26.88
2022-12-03T08:21:56.506Z,26.27
2022-12-03T08:23:03.778Z,27.90
2022-12-03T08:24:18.317Z,28.60
2022-12-03T08:25:30.967Z,28.27
2022-12-03T08:26:32.538Z,25.73
2022-12-03T08:27:34.105Z,27.25
2022-12-03T08:28:35.721Z,26.45
2022-12-03T08:29:37.278Z,26.38
2022-12-03T08:30:39.122Z,26.05
2022-12-03T08:31:40.852Z,28.23
2022-12-03T08:32:42.857Z,25.80
2022-12-03T08:33:44.409Z,26.20
2022-12-03T08:34:46.053Z,27.00
2022-12-03T08:35:51.082Z,26.67
2022-12-03T08:36:58.227Z,26.67
2022-12-03T08:38:02.592Z,26.45
2022-12-03T08:39:13.105Z,25.95
2022-12-03T08:40:23.481Z,27.25
2022-12-03T08:41:43.814Z,27.95
2022-12-03T08:42:45.388Z,28.13
2022-12-03T08:43:46.965Z,26.83
2022-12-03T08:44:48.526Z,28.08
2022-12-03T08:45:54.310Z,28.88
2022-12-03T08:47:16.383Z,27.02
2022-12-03T08:48:26.856Z,27.07
2022-12-03T08:49:28.582Z,27.73
2022-12-03T08:50:31.832Z,27.52
2022-12-03T08:51:33.388Z,27.25
2022-12-03T08:52:34.985Z,28.17
2022-12-03T08:53:46.531Z,27.23
2022-12-03T08:54:52.720Z,27.80
2022-12-03T08:55:56.558Z,28.05
2022-12-03T08:56:58.117Z,28.27
2022-12-03T08:57:59.808Z,28.60
2022-12-03T08:59:15.649Z,27.40
2022-12-03T09:00:21.226Z,27.65
2022-12-03T09:01:44.526Z,29.35
2022-12-03T09:02:55.942Z,27.00
2022-12-03T09:04:02.693Z,28.63
2022-12-03T09:05:18.965Z,31.15
2022-12-03T09:06:21.292Z,29.42
2022-12-03T09:07:22.913Z,30.00
2022-12-03T09:08:24.459Z,29.90
2022-12-03T09:09:26.142Z,29.13
2022-12-03T09:10:27.706Z,32.30
2022-12-03T09:11:29.316Z,29.05
2022-12-03T09:12:30.850Z,27.60
2022-12-03T09:13:32.469Z,29.80
2022-12-03T09:14:34.045Z,28.83
2022-12-03T09:15:35.591Z,27.45
2022-12-03T09:16:37.172Z,26.95
2022-12-03T09:17:38.780Z,28.98
2022-12-03T09:18:40.426Z,28.35
2022-12-03T09:19:46.251Z,28.55
2022-12-03T09:20:48.065Z,27.93
2022-12-03T09:21:49.618Z,27.65
2022-12-03T09:22:51.160Z,29.92
2022-12-03T09:23:52.827Z,28.85
2022-12-03T09:24:54.628Z,28.55
2022-12-03T09:25:56.380Z,28.00
2022-12-03T09:26:57.963Z,27.70
2022-12-03T09:27:59.533Z,27.35
2022-12-03T09:29:01.130Z,26.95
2022-12-03T09:30:03.173Z,29.05
2022-12-03T09:31:04.786Z,27.03
2022-12-03T09:32:06.417Z,27.65
2022-12-03T09:33:08.131Z,27.70
2022-12-03T09:34:09.733Z,27.45
2022-12-03T09:35:11.371Z,27.00
2022-12-03T09:36:12.932Z,27.25
2022-12-03T09:37:14.478Z,27.70
2022-12-03T09:38:16.076Z,31.20
2022-12-03T09:39:17.623Z,28.48
2022-12-03T09:40:19.328Z,29.48
2022-12-03T09:41:21.205Z,27.37
2022-12-03T09:42:22.786Z,28.08
2022-12-03T09:43:24.603Z,28.85
2022-12-03T09:44:32.634Z,26.45
2022-12-03T09:45:34.335Z,29.38
2022-12-03T09:46:36.345Z,28.42
2022-12-03T09:47:39.262Z,28.20
2022-12-03T09:48:40.818Z,26.55
2022-12-03T09:49:42.452Z,25.77
2022-12-03T09:50:44.170Z,27.23
2022-12-03T09:51:45.768Z,25.70
2022-12-03T09:52:47.560Z,25.30
2022-12-03T09:53:49.163Z,26.27
2022-12-03T09:54:50.719Z,25.67
2022-12-03T09:55:52.344Z,25.85
2022-12-03T09:56:55.067Z,26.15
2022-12-03T09:57:56.916Z,25.58
2022-12-03T09:58:58.468Z,28.70
2022-12-03T10:00:00.010Z,27.08
2022-12-03T10:01:01.670Z,25.55
2022-12-03T10:02:03.418Z,26.50
2022-12-03T10:03:05.121Z,27.17
2022-12-03T10:04:06.736Z,27.38
2022-12-03T10:05:08.904Z,26.23
2022-12-03T10:06:13.993Z,25.30
2022-12-03T10:07:15.557Z,27.98
2022-12-03T10:08:21.788Z,28.73
2022-12-03T10:09:27.693Z,26.27
2022-12-03T10:10:29.318Z,27.90
2022-12-03T10:11:30.891Z,27.75
2022-12-03T10:12:32.429Z,27.47
2022-12-03T10:13:36.139Z,25.92
2022-12-03T10:14:37.694Z,26.08
2022-12-03T10:15:39.298Z,25.65
2022-12-03T10:16:41.238Z,25.77
2022-12-03T10:17:43.274Z,27.80
2022-12-03T10:18:47.718Z,27.27
2022-12-03T10:19:49.322Z,27.98
2022-12-03T10:20:51.555Z,25.17
2022-12-03T10:21:53.160Z,26.67
2022-12-03T10:22:54.872Z,26.73
2022-12-03T10:24:18.024Z,25.85
2022-12-03T10:25:21.318Z,28.40
2022-12-03T10:26:37.460Z,27.80
2022-12-03T10:27:39.433Z,25.63
2022-12-03T10:28:42.085Z,26.85
2022-12-03T10:29:44.254Z,26.23
2022-12-03T10:30:54.376Z,28.95
2022-12-03T10:31:59.823Z,27.10
2022-12-03T10:33:02.804Z,28.08
2022-12-03T10:34:04.389Z,26.00
2022-12-03T10:35:08.341Z,27.35
2022-12-03T10:36:27.850Z,27.98
2022-12-03T10:37:29.517Z,27.83
2022-12-03T10:38:31.120Z,25.63
2022-12-03T10:39:32.681Z,25.63
2022-12-03T10:40:38.400Z,24.63
2022-12-03T10:41:41.298Z,25.52
2022-12-03T10:42:42.879Z,24.13
2022-12-03T10:43:44.501Z,25.45
2022-12-03T10:44:46.085Z,27.93
2022-12-03T10:46:01.948Z,27.10
2022-12-03T10:47:10.733Z,24.40
2022-12-03T10:48:19.052Z,26.83
2022-12-03T10:49:20.622Z,24.88
2022-12-03T10:50:22.215Z,25.23
2022-12-03T10:51:24.045Z,26.70
2022-12-03T10:52:26.264Z,27.30
2022-12-03T10:53:29.747Z,25.67
2022-12-03T10:54:32.185Z,26.00
2022-12-03T10:55:38.867Z,24.90
2022-12-03T10:56:40.832Z,25.70
2022-12-03T10:57:45.603Z,25.45
2022-12-03T10:58:47.576Z,25.60
2022-12-03T10:59:49.325Z,26.25
2022-12-03T11:00:52.162Z,24.42
2022-12-03T11:01:53.863Z,26.38
2022-12-03T11:02:57.192Z,27.92
2022-12-03T11:04:03.379Z,26.33
2022-12-03T11:05:05.243Z,26.67
2022-12-03T11:06:07.099Z,27.53
2022-12-03T11:07:17.270Z,28.70
2022-12-03T11:08:22.772Z,28.63
2022-12-03T11:09:27.066Z,27.80
2022-12-03T11:10:28.654Z,26.73
2022-12-03T11:11:30.525Z,31.17
2022-12-03T11:12:35.668Z,33.95
2022-12-03T11:13:37.209Z,29.90
2022-12-03T11:15:05.404Z,31.33
2022-12-03T11:16:08.452Z,28.55
2022-12-03T11:17:10.120Z,29.93
2022-12-03T11:18:11.718Z,29.33
2022-12-03T11:19:13.268Z,27.98
2022-12-03T11:20:22.820Z,25.58
2022-12-03T11:21:25.262Z,25.35
2022-12-03T11:22:29.267Z,25.52
2022-12-03T11:23:46.101Z,26.00
2022-12-03T11:24:47.649Z,27.98
2022-12-03T11:25:50.658Z,28.38
2022-12-03T11:26:52.327Z,27.42
2022-12-03T11:28:12.056Z,27.20
2022-12-03T11:29:14.092Z,24.92
2022-12-03T11:30:40.753Z,25.98
2022-12-03T11:31:46.598Z,28.00
2022-12-03T11:33:00.695Z,26.60
2022-12-03T11:34:25.334Z,26.23
2022-12-03T11:35:28.705Z,25.15
2022-12-03T11:36:54.012Z,25.10
2022-12-03T11:37:52.027Z,24.20
2022-12-03T11:38:54.239Z,23.48
2022-12-03T11:39:59.743Z,23.83
2022-12-03T11:41:17.629Z,23.92
2022-12-03T11:42:25.668Z,27.30
2022-12-03T11:43:52.022Z,22.33
2022-12-03T11:45:02.779Z,20.92
2022-12-03T11:46:09.030Z,23.30
2022-12-03T11:47:14.259Z,20.95
2022-12-03T11:48:15.874Z,20.58
2022-12-03T11:49:26.207Z,19.02
2022-12-03T11:50:40.518Z,17.80
2022-12-03T11:51:43.326Z,18.70
2022-12-03T11:52:45.662Z,16.85
2022-12-03T11:53:47.241Z,18.58
2022-12-03T11:54:52.120Z,16.45
2022-12-03T11:56:06.543Z,16.17
2022-12-03T11:57:26.929Z,17.05
2022-12-03T11:58:30.014Z,16.83
2022-12-03T11:59:31.576Z,17.52
2022-12-03T12:00:33.227Z,17.83
2022-12-03T12:01:38.773Z,18.23
2022-12-03T12:02:40.789Z,19.03
2022-12-03T12:03:47.602Z,18.25
2022-12-03T12:04:49.252Z,18.02
2022-12-03T12:06:06.505Z,17.42
2022-12-03T12:07:08.043Z,18.13
2022-12-03T12:08:18.452Z,17.17
2022-12-03T12:09:49.355Z,17.10
2022-12-03T12:10:50.912Z,18.20
2022-12-03T12:11:52.463Z,17.92
2022-12-03T12:12:55.225Z,18.65
2022-12-03T12:14:10.069Z,19.83
2022-12-03T12:15:34.666Z,18.27
2022-12-03T12:16:39.221Z,18.60
2022-12-03T12:17:40.838Z,18.50
2022-12-03T12:18:53.706Z,19.45
2022-12-03T12:20:27.946Z,19.55
2022-12-03T12:21:48.431Z,18.48
2022-12-03T12:22:50.199Z,18.13
2022-12-03T12:23:51.729Z,17.73
2022-12-03T12:24:56.884Z,18.20
2022-12-03T12:26:06.309Z,17.63
2022-12-03T12:27:14.464Z,18.58
2022-12-03T12:28:16.192Z,17.98
2022-12-03T12:29:17.848Z,18.35
2022-12-03T12:30:21.832Z,18.88
2022-12-03T12:31:23.503Z,18.40
2022-12-03T12:32:32.947Z,18.30
2022-12-03T12:33:35.457Z,19.05
2022-12-03T12:34:37.648Z,18.38
2022-12-03T12:35:39.243Z,19.27
2022-12-03T12:36:40.796Z,18.57
2022-12-03T12:37:47.708Z,16.80
2022-12-03T12:38:50.205Z,16.85
2022-12-03T12:39:53.620Z,17.73
2022-12-03T12:40:55.589Z,16.92
2022-12-03T12:41:57.156Z,16.73
2022-12-03T12:43:11.775Z,17.10
2022-12-03T12:44:15.082Z,17.15
2022-12-03T12:45:17.489Z,15.45
2022-12-03T12:46:46.810Z,15.55
2022-12-03T12:47:45.414Z,15.63
2022-12-03T12:48:47.000Z,15.80
2022-12-03T12:49:51.922Z,16.30
2022-12-03T12:51:11.438Z,17.45
2022-12-03T12:52:14.182Z,17.77
2022-12-03T12:53:27.008Z,17.60
2022-12-03T12:54:28.621Z,16.55
2022-12-03T12:55:30.175Z,16.48
2022-12-03T12:56:31.947Z,14.93
2022-12-03T12:57:33.517Z,16.48
2022-12-03T12:58:35.136Z,16.67
2022-12-03T12:59:36.700Z,16.17
2022-12-03T13:00:38.392Z,16.73
2022-12-03T13:01:40.327Z,16.15
2022-12-03T13:02:48.423Z,16.83
2022-12-03T13:03:50.746Z,16.38
2022-12-03T13:04:52.298Z,16.27
2022-12-03T13:05:56.529Z,15.45
2022-12-03T13:06:58.911Z,18.58
2022-12-03T13:08:03.593Z,18.50
2022-12-03T13:09:21.550Z,16.20
2022-12-03T13:10:35.549Z,17.15
2022-12-03T13:11:45.943Z,17.10
2022-12-03T13:12:47.559Z,16.60
2022-12-03T13:13:49.159Z,16.73
2022-12-03T13:14:52.173Z,15.60
2022-12-03T13:16:05.199Z,16.38
2022-12-03T13:17:26.122Z,16.55
2022-12-03T13:18:47.286Z,16.50
2022-12-03T13:19:55.885Z,16.92
2022-12-03T13:21:24.355Z,16.10
2022-12-03T13:22:25.985Z,17.00
2022-12-03T13:23:34.724Z,15.85
2022-12-03T13:24:39.397Z,16.35
2022-12-03T13:27:18.089Z,15.98
2022-12-03T13:28:19.705Z,16.67
2022-12-03T13:29:22.821Z,16.55
2022-12-03T13:30:24.578Z,16.88
2022-12-03T13:31:28.126Z,16.55
2022-12-03T13:32:39.108Z,15.70
2022-12-03T13:33:40.717Z,15.43
2022-12-03T13:34:42.736Z,15.35
2022-12-03T13:35:44.301Z,15.18
2022-12-03T13:36:48.397Z,14.82
2022-12-03T13:37:55.057Z,15.45
2022-12-03T13:38:56.657Z,14.77
2022-12-03T13:39:58.482Z,15.63
2022-12-03T13:41:02.244Z,15.52
2022-12-03T13:42:38.561Z,15.88
2022-12-03T13:43:44.529Z,14.40
2022-12-03T13:44:47.803Z,16.38